createdAt,value
2019-01-10T00:00:40.341Z,99692.15
2019-01-10T00:06:44.973Z,99687.61
2019-01-10T00:12:49.688Z,99692.83
2019-01-10T00:18:54.329Z,99707.51
2019-01-10T00:24:59.038Z,99718.13
2019-01-10T00:31:03.846Z,99725.27
2019-01-10T00:37:08.418Z,99724.44
2019-01-10T00:43:13.124Z,99730.84
2019-01-10T00:49:17.780Z,99732.80
2019-01-10T00:55:22.509Z,99730.11
2019-01-10T01:01:27.045Z,99739.89
2019-01-10T01:07:31.740Z,99740.63
2019-01-10T01:13:36.303Z,99741.11
2019-01-10T01:19:40.878Z,99759.51
2019-01-10T01:25:45.517Z,99761.22
2019-01-10T01:31:50.098Z,99771.11
2019-01-10T01:37:54.725Z,99786.43
2019-01-10T01:43:59.287Z,99793.81
2019-01-10T01:50:06.317Z,99805.59
2019-01-10T01:56:11.024Z,99808.05
2019-01-10T02:02:15.791Z,99824.64
2019-01-10T02:08:20.427Z,99833.09
2019-01-10T02:14:24.987Z,99839.10
2019-01-10T02:20:29.606Z,99846.54
2019-01-10T02:26:34.151Z,99856.13
2019-01-10T02:32:38.697Z,99866.35
2019-01-10T02:38:43.258Z,99865.77
2019-01-10T02:44:47.802Z,99865.14
2019-01-10T02:50:52.361Z,99860.06
2019-01-10T02:56:56.913Z,99859.99
2019-01-10T03:03:01.549Z,99866.91
2019-01-10T03:09:09.370Z,99871.64
2019-01-10T03:15:14.132Z,99869.69
2019-01-10T03:21:18.727Z,99886.73
2019-01-10T03:27:23.287Z,99888.81
2019-01-10T03:33:27.843Z,99904.63
2019-01-10T03:39:32.379Z,99917.73
2019-01-10T03:45:37.002Z,99908.64
2019-01-10T03:51:41.553Z,99921.23
2019-01-10T03:57:46.167Z,99920.80
2019-01-10T04:03:50.735Z,99915.14
2019-01-10T04:09:55.355Z,99926.91
2019-01-10T04:15:59.984Z,99926.08
2019-01-10T04:22:04.605Z,99929.34
2019-01-10T04:28:09.152Z,99927.18
2019-01-10T04:34:13.789Z,99926.00
2019-01-10T04:40:20.913Z,99928.03
2019-01-10T04:46:25.528Z,99929.02
2019-01-10T04:52:30.073Z,99925.39
2019-01-10T04:58:34.615Z,99940.86
2019-01-10T05:04:39.233Z,99930.19
2019-01-10T05:10:43.787Z,99941.14
2019-01-10T05:16:48.370Z,99941.39
2019-01-10T05:22:52.970Z,99954.34
2019-01-10T05:28:57.531Z,99955.67
2019-01-10T05:35:02.274Z,99958.55
2019-01-10T05:41:06.968Z,99966.23
2019-01-10T05:47:11.540Z,99966.10
2019-01-10T05:53:16.104Z,99972.71
2019-01-10T05:59:20.648Z,99963.46
2019-01-10T06:05:25.341Z,99964.66
2019-01-10T06:11:29.964Z,99975.23
2019-01-10T06:17:34.601Z,99976.31
2019-01-10T06:23:39.249Z,99974.98
2019-01-10T06:29:43.813Z,99984.34
2019-01-10T06:35:48.519Z,99992.37
2019-01-10T06:41:53.165Z,99993.22
2019-01-10T06:47:57.718Z,100000.91
2019-01-10T06:54:02.383Z,100011.08
2019-01-10T07:00:19.810Z,100018.77
2019-01-10T07:06:24.404Z,100025.13
2019-01-10T07:12:29.034Z,100036.44
2019-01-10T07:18:33.604Z,100045.55
2019-01-10T07:24:38.167Z,100043.62
2019-01-10T07:30:42.795Z,100048.07
2019-01-10T07:36:50.589Z,100048.80
2019-01-10T07:42:55.197Z,100068.22
2019-01-10T07:48:59.743Z,100060.20
2019-01-10T07:55:04.637Z,100074.24
2019-01-10T08:01:09.210Z,100078.80
2019-01-10T08:07:13.860Z,100088.26
2019-01-10T08:13:19.618Z,100094.51
2019-01-10T08:19:24.240Z,100101.11
2019-01-10T08:25:28.864Z,100107.34
2019-01-10T08:31:33.434Z,100119.23
2019-01-10T08:37:37.987Z,100126.55
2019-01-10T08:43:42.696Z,100125.33
2019-01-10T08:49:47.256Z,100122.17
2019-01-10T08:55:51.966Z,100128.98
2019-01-10T09:01:56.537Z,100132.86
2019-01-10T09:08:01.093Z,100138.17
2019-01-10T09:14:05.727Z,100149.80
2019-01-10T09:20:13.995Z,100161.61
2019-01-10T09:26:18.610Z,100165.42
2019-01-10T09:32:23.179Z,100170.97
2019-01-10T09:38:27.800Z,100176.25
2019-01-10T09:44:32.372Z,100177.83
2019-01-10T09:50:36.947Z,100175.06
2019-01-10T09:56:41.502Z,100180.91
2019-01-10T10:02:46.205Z,100184.33
2019-01-10T10:08:50.802Z,100184.55
2019-01-10T10:14:55.431Z,100190.91
2019-01-10T10:21:00.013Z,100202.97
2019-01-10T10:27:04.913Z,100198.61
2019-01-10T10:33:09.482Z,100192.34
2019-01-10T10:39:14.051Z,100197.25
2019-01-10T10:45:20.421Z,100197.73
2019-01-10T10:51:25.135Z,100204.21
2019-01-10T10:57:29.719Z,100203.48
2019-01-10T11:03:34.336Z,100196.50
2019-01-10T11:09:38.971Z,100201.12
2019-01-10T11:15:43.518Z,100193.77
2019-01-10T11:21:48.154Z,100187.91
2019-01-10T11:27:52.792Z,100173.65
2019-01-10T11:33:57.477Z,100175.41
2019-01-10T11:40:02.030Z,100168.05
2019-01-10T11:46:06.816Z,100170.49
2019-01-10T11:52:11.442Z,100167.50
2019-01-10T11:58:15.988Z,100162.91
2019-01-10T12:04:20.551Z,100167.70
2019-01-10T12:10:25.242Z,100159.52
2019-01-10T12:16:29.800Z,100162.63
2019-01-10T12:22:34.422Z,100162.87
2019-01-10T12:28:39.055Z,100164.56
2019-01-10T12:34:43.612Z,100161.92
2019-01-10T12:40:48.312Z,100161.03
2019-01-10T12:46:52.929Z,100154.73
2019-01-10T12:52:57.617Z,100146.45
2019-01-10T12:59:02.315Z,100141.45
2019-01-10T13:05:07.918Z,100143.78
2019-01-10T13:11:12.554Z,100144.65
2019-01-10T13:17:17.188Z,100155.48
2019-01-10T13:23:21.815Z,100159.49
2019-01-10T13:29:26.445Z,100165.49
2019-01-10T13:35:31.017Z,100168.06
2019-01-10T13:41:35.638Z,100167.59
2019-01-10T13:47:41.647Z,100176.05
2019-01-10T13:53:46.178Z,100177.11
2019-01-10T13:59:50.815Z,100172.95
2019-01-10T14:05:55.437Z,100179.36
2019-01-10T14:12:00.057Z,100178.98
2019-01-10T14:18:05.373Z,100184.67
2019-01-10T14:24:09.917Z,100184.69
2019-01-10T14:30:21.899Z,100181.91
2019-01-10T14:36:26.520Z,100179.97
2019-01-10T14:42:31.953Z,100176.23
2019-01-10T14:48:36.577Z,100180.34
2019-01-10T14:54:41.138Z,100179.37
2019-01-10T15:00:45.793Z,100177.22
2019-01-10T15:06:51.849Z,100178.80
2019-01-10T15:12:56.544Z,100190.23
2019-01-10T15:19:01.777Z,100190.84
2019-01-10T15:25:07.003Z,100197.91
2019-01-10T15:31:11.573Z,100191.55
2019-01-10T15:37:16.136Z,100192.16
2019-01-10T15:43:20.756Z,100193.00
2019-01-10T15:49:25.303Z,100193.09
2019-01-10T15:55:30.002Z,100195.61
2019-01-10T16:01:34.685Z,100197.67
2019-01-10T16:07:39.263Z,100193.32
2019-01-10T16:13:43.870Z,100184.94
2019-01-10T16:19:48.426Z,100191.64
2019-01-10T16:25:52.997Z,100200.66
2019-01-10T16:31:57.624Z,100200.19
2019-01-10T16:38:02.336Z,100200.27
2019-01-10T16:44:07.029Z,100201.38
2019-01-10T16:50:14.571Z,100200.05
2019-01-10T16:56:19.137Z,100205.20
2019-01-10T17:02:24.076Z,100209.30
2019-01-10T17:08:28.625Z,100197.02
2019-01-10T17:14:33.183Z,100207.05
2019-01-10T17:20:37.743Z,100194.16
2019-01-10T17:26:42.293Z,100188.16
2019-01-10T17:32:46.929Z,100193.89
2019-01-10T17:38:52.054Z,100188.99
2019-01-10T17:44:56.596Z,100189.92
2019-01-10T17:51:01.138Z,100191.86
2019-01-10T17:57:05.684Z,100185.69
2019-01-10T18:03:10.237Z,100186.88
2019-01-10T18:09:14.803Z,100179.78
2019-01-10T18:15:24.994Z,100170.59
2019-01-10T18:21:29.550Z,100178.73
2019-01-10T18:27:34.127Z,100177.85
2019-01-10T18:33:38.696Z,100177.50
2019-01-10T18:39:43.252Z,100181.11
2019-01-10T18:45:47.803Z,100176.09
2019-01-10T18:51:52.377Z,100177.91
2019-01-10T18:57:56.946Z,100191.86
2019-01-10T19:04:01.521Z,100187.55
2019-01-10T19:10:10.624Z,100186.22
2019-01-10T19:16:15.166Z,100188.74
2019-01-10T19:22:19.864Z,100193.22
2019-01-10T19:28:24.415Z,100191.42
2019-01-10T19:34:28.978Z,100196.57
2019-01-10T19:40:33.591Z,100207.27
2019-01-10T19:46:38.143Z,100214.45
2019-01-10T19:52:42.780Z,100190.94
2019-01-10T19:58:47.348Z,100209.43
2019-01-10T20:04:51.913Z,100220.61
2019-01-10T20:10:56.680Z,100219.80
2019-01-10T20:17:01.231Z,100203.79
2019-01-10T20:23:07.185Z,100203.30
2019-01-10T20:29:11.750Z,100200.76
2019-01-10T20:35:16.659Z,100208.45
2019-01-10T20:41:21.305Z,100204.59
2019-01-10T20:47:25.861Z,100208.33
2019-01-10T20:53:30.477Z,100199.66
2019-01-10T20:59:35.037Z,100209.16
2019-01-10T21:05:39.611Z,100201.80
2019-01-10T21:11:44.173Z,100192.69
2019-01-10T21:17:49.330Z,100194.70
2019-01-10T21:23:53.955Z,100203.96
2019-01-10T21:29:58.538Z,100193.05
2019-01-10T21:36:03.096Z,100189.92
2019-01-10T21:42:07.905Z,100185.35
2019-01-10T21:48:12.595Z,100186.23
2019-01-10T21:54:17.246Z,100191.64
2019-01-10T22:00:28.209Z,100179.27
2019-01-10T22:06:32.768Z,100187.69
2019-01-10T22:12:37.388Z,100187.45
2019-01-10T22:18:41.995Z,100194.38
2019-01-10T22:24:46.577Z,100190.94
2019-01-10T22:30:52.439Z,100197.19
2019-01-10T22:36:57.016Z,100192.52
2019-01-10T22:43:01.609Z,100192.73
2019-01-10T22:49:06.233Z,100197.92
2019-01-10T22:55:13.365Z,100195.41
2019-01-10T23:01:27.117Z,100183.97
2019-01-10T23:07:31.728Z,100192.16
2019-01-10T23:13:36.292Z,100183.27
2019-01-10T23:19:46.078Z,100174.98
2019-01-10T23:25:55.352Z,100169.83
2019-01-10T23:32:03.199Z,100169.47
2019-01-10T23:38:09.096Z,100178.72
2019-01-10T23:44:13.855Z,100164.28
2019-01-10T23:50:18.455Z,100165.12
2019-01-10T23:56:23.027Z,100159.37
